Impacts METAR Board INFO
IDs:

KMSY - New Orleans/Armstron, LA, US

Updated at: 2208 UTC 19 Feb 2018
Potential Impact None Slight Moderate High
Time19/10Z 19/11Z 19/12Z 19/13Z 19/14Z 19/15Z 19/16Z 19/17Z 19/18Z 19/19Z 19/20Z 19/21Z 19/22Z
VIS7 7 6 6 10 10 10 10 10 10 10 10 10
CIG-- -- -- -- -- -- 60 250 250 -- 70 -- --
CoverFEWSCTSCTSCTFEWFEWBKNBKNBKNSCTBKNSCTSCT
FltCatVFRVFRVFRVFRVFRVFRVFRVFRVFRVFRVFRVFRVFR
WXMIFGMIFGBR MIFGBR MIFG------------------
WDir120130140130130140160160170180160160170
WSpd4 5 4 5 5 9 10 14 17 17 13 12 12
WGst-- -- -- -- -- -- -- -- 21 -- 20 21 --
Raw hourly METARs
KMSY 190953Z 12004KT 7SM MIFG FEW004 FEW250 18/18 A3011 RMK AO2 SLP200 T01830183
KMSY 191053Z 13005KT 7SM MIFG FEW004 FEW060 SCT250 18/18 A3012 RMK AO2 SLP203 T01830183
KMSY 191153Z 14004KT 6SM BR MIFG FEW004 FEW055 SCT250 18/18 A3013 RMK AO2 SLP204 T01830183 10200 20178 53003
KMSY 191253Z 13005KT 6SM BR MIFG FEW055 SCT250 17/17 A3013 RMK AO2 SLP207 T01720172
KMSY 191353Z 13005KT 10SM FEW055 FEW250 22/19 A3014 RMK AO2 SLP210 T02170189
KMSY 191453Z 14009KT 10SM FEW055 FEW250 23/20 A3016 RMK AO2 SLP217 T02280200 53014
KMSY 191553Z 16010KT 10SM BKN060 BKN250 26/18 A3017 RMK AO2 SLP220 T02560178
KMSY 191653Z 16014KT 10SM FEW030 SCT060 BKN250 27/18 A3017 RMK AO2 SLP219 T02670178
KMSY 191753Z 17017G21KT 10SM SCT035 SCT060 BKN250 27/19 A3015 RMK AO2 SLP212 T02720194 10278 20172 58005
KMSY 191853Z 18017KT 10SM FEW035 SCT060 28/20 A3012 RMK AO2 SLP202 T02780200
KMSY 191953Z 16013G20KT 10SM FEW035 BKN070 28/19 A3011 RMK AO2 PK WND 18026/1934 SLP198 T02780189
KMSY 192053Z 16012G21KT 10SM FEW035 SCT070 27/19 A3010 RMK AO2 PK WND 15026/2001 SLP195 T02720194 56017
KMSY 192153Z 17012KT 10SM FEW035 SCT070 27/19 A3010 RMK AO2 SLP195 T02720189